sensor_id;sensor_type;location;lat;lon;timestamp;temperature;humidity
652;DHT22;310;48.490;9.200;2022-07-18T00:01:56;22.60;24.30
652;DHT22;310;48.490;9.200;2022-07-18T00:04:22;22.40;24.30
652;DHT22;310;48.490;9.200;2022-07-18T00:06:48;22.40;24.10
652;DHT22;310;48.490;9.200;2022-07-18T00:09:14;22.40;23.90
652;DHT22;310;48.490;9.200;2022-07-18T00:11:40;22.60;24.30
652;DHT22;310;48.490;9.200;2022-07-18T00:14:05;22.60;25.10
652;DHT22;310;48.490;9.200;2022-07-18T00:16:31;22.40;24.50
652;DHT22;310;48.490;9.200;2022-07-18T00:18:56;22.30;24.40
652;DHT22;310;48.490;9.200;2022-07-18T00:21:24;22.20;24.50
652;DHT22;310;48.490;9.200;2022-07-18T00:23:50;22.00;25.40
652;DHT22;310;48.490;9.200;2022-07-18T00:26:16;21.80;25.10
652;DHT22;310;48.490;9.200;2022-07-18T00:28:41;21.90;25.20
652;DHT22;310;48.490;9.200;2022-07-18T00:31:07;21.80;25.90
652;DHT22;310;48.490;9.200;2022-07-18T00:33:33;21.80;27.00
652;DHT22;310;48.490;9.200;2022-07-18T00:35:58;21.80;26.00
652;DHT22;310;48.490;9.200;2022-07-18T00:38:24;21.80;26.00
652;DHT22;310;48.490;9.200;2022-07-18T00:40:50;21.80;27.30
652;DHT22;310;48.490;9.200;2022-07-18T00:43:15;21.70;27.20
652;DHT22;310;48.490;9.200;2022-07-18T00:45:45;21.80;26.40
652;DHT22;310;48.490;9.200;2022-07-18T00:48:11;22.00;25.70
652;DHT22;310;48.490;9.200;2022-07-18T00:50:37;22.00;25.90
652;DHT22;310;48.490;9.200;2022-07-18T00:53:03;21.90;25.80
652;DHT22;310;48.490;9.200;2022-07-18T00:55:30;21.90;25.60
652;DHT22;310;48.490;9.200;2022-07-18T00:57:56;21.70;26.30
652;DHT22;310;48.490;9.200;2022-07-18T01:00:22;21.80;26.10
652;DHT22;310;48.490;9.200;2022-07-18T01:03:06;21.70;25.50
652;DHT22;310;48.490;9.200;2022-07-18T01:05:32;21.70;25.80
652;DHT22;310;48.490;9.200;2022-07-18T01:07:58;21.50;25.80
652;DHT22;310;48.490;9.200;2022-07-18T01:10:23;21.60;26.40
652;DHT22;310;48.490;9.200;2022-07-18T01:12:49;21.50;26.80
652;DHT22;310;48.490;9.200;2022-07-18T01:15:15;21.50;26.20
652;DHT22;310;48.490;9.200;2022-07-18T01:17:40;21.60;26.40
652;DHT22;310;48.490;9.200;2022-07-18T01:20:06;21.40;26.30
652;DHT22;310;48.490;9.200;2022-07-18T01:22:32;21.50;26.30
652;DHT22;310;48.490;9.200;2022-07-18T01:24:59;21.60;25.90
652;DHT22;310;48.490;9.200;2022-07-18T01:27:24;21.50;25.80
652;DHT22;310;48.490;9.200;2022-07-18T01:29:51;21.40;26.20
652;DHT22;310;48.490;9.200;2022-07-18T01:32:18;21.50;27.00
652;DHT22;310;48.490;9.200;2022-07-18T01:34:48;21.40;27.40
652;DHT22;310;48.490;9.200;2022-07-18T01:37:14;21.20;26.90
652;DHT22;310;48.490;9.200;2022-07-18T01:39:41;21.00;27.70
652;DHT22;310;48.490;9.200;2022-07-18T01:42:08;21.00;28.30
652;DHT22;310;48.490;9.200;2022-07-18T01:44:35;21.00;28.60
652;DHT22;310;48.490;9.200;2022-07-18T01:47:02;21.00;28.10
652;DHT22;310;48.490;9.200;2022-07-18T01:49:28;21.00;28.50
652;DHT22;310;48.490;9.200;2022-07-18T01:51:58;21.10;27.70
652;DHT22;310;48.490;9.200;2022-07-18T01:54:29;20.90;28.40
652;DHT22;310;48.490;9.200;2022-07-18T01:56:56;21.00;27.70
652;DHT22;310;48.490;9.200;2022-07-18T01:59:22;21.00;27.60
652;DHT22;310;48.490;9.200;2022-07-18T02:01:48;20.80;28.00
652;DHT22;310;48.490;9.200;2022-07-18T02:04:13;20.80;27.80
652;DHT22;310;48.490;9.200;2022-07-18T02:06:39;20.80;28.30
652;DHT22;310;48.490;9.200;2022-07-18T02:09:06;20.80;27.90
652;DHT22;310;48.490;9.200;2022-07-18T02:11:32;20.60;28.90
652;DHT22;310;48.490;9.200;2022-07-18T02:13:58;20.60;28.60
652;DHT22;310;48.490;9.200;2022-07-18T02:16:24;20.30;28.40
652;DHT22;310;48.490;9.200;2022-07-18T02:18:49;20.50;28.80
652;DHT22;310;48.490;9.200;2022-07-18T02:21:15;20.40;28.30
652;DHT22;310;48.490;9.200;2022-07-18T02:23:42;20.40;28.00
652;DHT22;310;48.490;9.200;2022-07-18T02:26:08;20.30;27.30
652;DHT22;310;48.490;9.200;2022-07-18T02:28:34;20.30;27.50
652;DHT22;310;48.490;9.200;2022-07-18T02:31:00;20.30;28.00
652;DHT22;310;48.490;9.200;2022-07-18T02:33:26;20.30;27.90
652;DHT22;310;48.490;9.200;2022-07-18T02:35:52;20.30;27.80
652;DHT22;310;48.490;9.200;2022-07-18T02:38:17;20.50;28.00
652;DHT22;310;48.490;9.200;2022-07-18T02:40:43;20.50;28.10
652;DHT22;310;48.490;9.200;2022-07-18T02:43:09;20.20;28.30
652;DHT22;310;48.490;9.200;2022-07-18T02:45:35;20.40;28.40
652;DHT22;310;48.490;9.200;2022-07-18T02:48:01;20.20;29.00
652;DHT22;310;48.490;9.200;2022-07-18T02:50:27;20.20;28.60
652;DHT22;310;48.490;9.200;2022-07-18T02:52:52;20.20;28.60
652;DHT22;310;48.490;9.200;2022-07-18T02:55:18;20.20;28.70
652;DHT22;310;48.490;9.200;2022-07-18T02:57:44;20.10;29.20
652;DHT22;310;48.490;9.200;2022-07-18T03:00:12;20.00;28.80
652;DHT22;310;48.490;9.200;2022-07-18T03:02:39;19.90;29.60
652;DHT22;310;48.490;9.200;2022-07-18T03:05:06;19.90;28.50
652;DHT22;310;48.490;9.200;2022-07-18T03:07:31;20.00;29.40
652;DHT22;310;48.490;9.200;2022-07-18T03:09:57;19.80;29.90
652;DHT22;310;48.490;9.200;2022-07-18T03:12:23;19.90;28.90
652;DHT22;310;48.490;9.200;2022-07-18T03:14:49;19.80;29.50
652;DHT22;310;48.490;9.200;2022-07-18T03:17:15;19.90;29.60
652;DHT22;310;48.490;9.200;2022-07-18T03:19:40;20.00;29.40
652;DHT22;310;48.490;9.200;2022-07-18T03:22:06;19.80;29.20
652;DHT22;310;48.490;9.200;2022-07-18T03:24:32;19.80;29.80
652;DHT22;310;48.490;9.200;2022-07-18T03:26:58;19.80;30.00
652;DHT22;310;48.490;9.200;2022-07-18T03:29:24;19.90;29.20
652;DHT22;310;48.490;9.200;2022-07-18T03:31:50;19.90;29.10
652;DHT22;310;48.490;9.200;2022-07-18T03:34:15;19.80;29.20
652;DHT22;310;48.490;9.200;2022-07-18T03:36:42;19.80;29.30
652;DHT22;310;48.490;9.200;2022-07-18T03:39:08;19.80;29.50
652;DHT22;310;48.490;9.200;2022-07-18T03:41:34;19.70;29.40
652;DHT22;310;48.490;9.200;2022-07-18T03:44:01;19.80;29.20
652;DHT22;310;48.490;9.200;2022-07-18T03:46:26;19.60;30.00
652;DHT22;310;48.490;9.200;2022-07-18T03:48:52;19.70;29.90
652;DHT22;310;48.490;9.200;2022-07-18T03:51:18;19.80;30.20
652;DHT22;310;48.490;9.200;2022-07-18T03:53:43;19.60;30.60
652;DHT22;310;48.490;9.200;2022-07-18T03:56:09;19.50;30.60
652;DHT22;310;48.490;9.200;2022-07-18T03:58:34;19.60;30.70
652;DHT22;310;48.490;9.200;2022-07-18T04:01:00;19.60;30.20
652;DHT22;310;48.490;9.200;2022-07-18T04:03:26;19.70;30.40
652;DHT22;310;48.490;9.200;2022-07-18T04:05:52;19.80;30.00
652;DHT22;310;48.490;9.200;2022-07-18T04:08:17;19.80;30.00
652;DHT22;310;48.490;9.200;2022-07-18T04:10:43;19.90;29.90
652;DHT22;310;48.490;9.200;2022-07-18T04:13:09;20.00;29.70
652;DHT22;310;48.490;9.200;2022-07-18T04:15:36;19.90;29.90
652;DHT22;310;48.490;9.200;2022-07-18T04:18:03;19.90;30.10
652;DHT22;310;48.490;9.200;2022-07-18T04:20:29;19.90;30.20
652;DHT22;310;48.490;9.200;2022-07-18T04:23:00;19.80;30.00
652;DHT22;310;48.490;9.200;2022-07-18T04:25:28;19.70;29.90
652;DHT22;310;48.490;9.200;2022-07-18T04:27:55;19.70;29.80
652;DHT22;310;48.490;9.200;2022-07-18T04:30:23;19.70;29.20
652;DHT22;310;48.490;9.200;2022-07-18T04:32:49;19.70;29.20
652;DHT22;310;48.490;9.200;2022-07-18T04:35:15;19.80;29.10
652;DHT22;310;48.490;9.200;2022-07-18T04:37:41;19.90;29.50
652;DHT22;310;48.490;9.200;2022-07-18T04:40:08;19.80;29.00
652;DHT22;310;48.490;9.200;2022-07-18T04:42:34;19.70;29.60
652;DHT22;310;48.490;9.200;2022-07-18T04:45:00;19.70;29.40
652;DHT22;310;48.490;9.200;2022-07-18T04:47:28;19.60;29.30
652;DHT22;310;48.490;9.200;2022-07-18T04:49:54;19.50;29.50
652;DHT22;310;48.490;9.200;2022-07-18T04:52:20;19.50;29.20
652;DHT22;310;48.490;9.200;2022-07-18T04:54:46;19.50;29.30
652;DHT22;310;48.490;9.200;2022-07-18T04:57:12;19.60;29.80
652;DHT22;310;48.490;9.200;2022-07-18T04:59:40;19.40;29.70
652;DHT22;310;48.490;9.200;2022-07-18T05:02:07;19.80;29.10
652;DHT22;310;48.490;9.200;2022-07-18T05:04:33;19.60;29.60
652;DHT22;310;48.490;9.200;2022-07-18T05:06:59;19.60;29.40
652;DHT22;310;48.490;9.200;2022-07-18T05:09:25;19.90;29.20
652;DHT22;310;48.490;9.200;2022-07-18T05:11:51;20.20;29.40
652;DHT22;310;48.490;9.200;2022-07-18T05:14:16;20.30;28.80
652;DHT22;310;48.490;9.200;2022-07-18T05:16:42;19.80;29.00
652;DHT22;310;48.490;9.200;2022-07-18T05:19:08;19.70;29.40
652;DHT22;310;48.490;9.200;2022-07-18T05:21:34;19.70;30.00
652;DHT22;310;48.490;9.200;2022-07-18T05:23:59;19.40;29.70
652;DHT22;310;48.490;9.200;2022-07-18T05:26:25;19.10;30.80
652;DHT22;310;48.490;9.200;2022-07-18T05:28:50;19.50;29.80
652;DHT22;310;48.490;9.200;2022-07-18T05:31:16;19.30;29.80
652;DHT22;310;48.490;9.200;2022-07-18T05:33:42;19.40;30.00
652;DHT22;310;48.490;9.200;2022-07-18T05:36:08;19.70;29.50
652;DHT22;310;48.490;9.200;2022-07-18T05:38:34;20.20;29.40
652;DHT22;310;48.490;9.200;2022-07-18T05:40:59;20.40;29.60
652;DHT22;310;48.490;9.200;2022-07-18T05:43:25;20.60;28.80
652;DHT22;310;48.490;9.200;2022-07-18T05:45:50;20.70;28.40
652;DHT22;310;48.490;9.200;2022-07-18T05:48:16;20.80;29.10
652;DHT22;310;48.490;9.200;2022-07-18T05:50:42;20.90;28.00
652;DHT22;310;48.490;9.200;2022-07-18T05:53:07;22.20;29.70
652;DHT22;310;48.490;9.200;2022-07-18T05:55:33;20.80;27.30
652;DHT22;310;48.490;9.200;2022-07-18T05:57:58;20.60;28.00
652;DHT22;310;48.490;9.200;2022-07-18T06:00:24;20.40;27.70
652;DHT22;310;48.490;9.200;2022-07-18T06:02:50;20.70;28.30
652;DHT22;310;48.490;9.200;2022-07-18T06:05:16;21.10;28.70
652;DHT22;310;48.490;9.200;2022-07-18T06:07:42;21.10;26.90
652;DHT22;310;48.490;9.200;2022-07-18T06:10:08;20.80;27.20
652;DHT22;310;48.490;9.200;2022-07-18T06:12:34;20.70;27.90
652;DHT22;310;48.490;9.200;2022-07-18T06:15:00;20.80;27.50
652;DHT22;310;48.490;9.200;2022-07-18T06:17:26;20.90;27.70
652;DHT22;310;48.490;9.200;2022-07-18T06:19:54;21.20;26.90
652;DHT22;310;48.490;9.200;2022-07-18T06:22:22;21.30;26.90
652;DHT22;310;48.490;9.200;2022-07-18T06:24:47;21.70;28.60
652;DHT22;310;48.490;9.200;2022-07-18T06:27:13;22.10;25.80
652;DHT22;310;48.490;9.200;2022-07-18T06:29:39;21.50;25.80
652;DHT22;310;48.490;9.200;2022-07-18T06:32:05;21.40;26.40
652;DHT22;310;48.490;9.200;2022-07-18T06:34:31;21.50;25.20
652;DHT22;310;48.490;9.200;2022-07-18T06:36:56;21.30;26.30
652;DHT22;310;48.490;9.200;2022-07-18T06:39:22;21.50;25.80
652;DHT22;310;48.490;9.200;2022-07-18T06:41:47;21.90;27.20
652;DHT22;310;48.490;9.200;2022-07-18T06:44:13;23.50;25.90
652;DHT22;310;48.490;9.200;2022-07-18T06:46:39;21.60;24.70
652;DHT22;310;48.490;9.200;2022-07-18T06:49:05;21.60;25.10
652;DHT22;310;48.490;9.200;2022-07-18T06:51:31;21.60;24.80
652;DHT22;310;48.490;9.200;2022-07-18T06:53:57;21.50;25.10
652;DHT22;310;48.490;9.200;2022-07-18T06:56:23;21.80;25.50
652;DHT22;310;48.490;9.200;2022-07-18T06:58:49;22.40;26.20
652;DHT22;310;48.490;9.200;2022-07-18T07:01:16;22.90;24.30
652;DHT22;310;48.490;9.200;2022-07-18T07:03:42;23.10;24.50
652;DHT22;310;48.490;9.200;2022-07-18T07:06:07;23.30;23.00
652;DHT22;310;48.490;9.200;2022-07-18T07:08:33;23.10;23.20
652;DHT22;310;48.490;9.200;2022-07-18T07:11:00;23.20;23.20
652;DHT22;310;48.490;9.200;2022-07-18T07:13:25;23.00;23.10
652;DHT22;310;48.490;9.200;2022-07-18T07:15:51;23.10;23.30
652;DHT22;310;48.490;9.200;2022-07-18T07:18:17;23.50;23.20
652;DHT22;310;48.490;9.200;2022-07-18T07:20:42;23.20;22.50
652;DHT22;310;48.490;9.200;2022-07-18T07:23:08;23.20;22.00
652;DHT22;310;48.490;9.200;2022-07-18T07:25:35;23.50;22.50
652;DHT22;310;48.490;9.200;2022-07-18T07:28:01;23.80;22.00
652;DHT22;310;48.490;9.200;2022-07-18T07:30:28;24.20;21.70
652;DHT22;310;48.490;9.200;2022-07-18T07:35:20;24.70;20.80
652;DHT22;310;48.490;9.200;2022-07-18T07:37:57;24.90;20.30
652;DHT22;310;48.490;9.200;2022-07-18T07:40:25;24.80;18.70
652;DHT22;310;48.490;9.200;2022-07-18T07:42:51;23.90;19.40
652;DHT22;310;48.490;9.200;2022-07-18T07:45:18;23.90;19.50
652;DHT22;310;48.490;9.200;2022-07-18T07:47:44;23.70;20.10
652;DHT22;310;48.490;9.200;2022-07-18T07:50:11;23.60;20.10
652;DHT22;310;48.490;9.200;2022-07-18T07:52:38;23.70;20.40
652;DHT22;310;48.490;9.200;2022-07-18T07:55:05;24.10;19.60
652;DHT22;310;48.490;9.200;2022-07-18T07:57:31;24.40;20.30
652;DHT22;310;48.490;9.200;2022-07-18T07:59:56;24.60;19.70
652;DHT22;310;48.490;9.200;2022-07-18T08:02:22;24.80;20.10
652;DHT22;310;48.490;9.200;2022-07-18T08:04:48;25.20;20.00
652;DHT22;310;48.490;9.200;2022-07-18T08:07:16;25.00;18.70
652;DHT22;310;48.490;9.200;2022-07-18T08:09:41;25.00;18.40
652;DHT22;310;48.490;9.200;2022-07-18T08:12:07;25.10;19.10
652;DHT22;310;48.490;9.200;2022-07-18T08:14:33;25.20;17.90
652;DHT22;310;48.490;9.200;2022-07-18T08:17:00;25.20;19.20
652;DHT22;310;48.490;9.200;2022-07-18T08:19:26;25.50;18.00
652;DHT22;310;48.490;9.200;2022-07-18T08:21:51;26.10;18.00
652;DHT22;310;48.490;9.200;2022-07-18T08:24:17;25.90;17.40
652;DHT22;310;48.490;9.200;2022-07-18T08:26:43;25.80;17.60
652;DHT22;310;48.490;9.200;2022-07-18T08:29:08;25.70;17.90
652;DHT22;310;48.490;9.200;2022-07-18T08:31:34;26.00;18.00
652;DHT22;310;48.490;9.200;2022-07-18T08:34:00;26.30;17.30
652;DHT22;310;48.490;9.200;2022-07-18T08:36:25;25.90;18.10
652;DHT22;310;48.490;9.200;2022-07-18T08:38:52;25.80;18.70
652;DHT22;310;48.490;9.200;2022-07-18T08:41:17;25.90;18.40
652;DHT22;310;48.490;9.200;2022-07-18T08:43:44;26.00;18.40
652;DHT22;310;48.490;9.200;2022-07-18T08:46:12;26.80;17.00
652;DHT22;310;48.490;9.200;2022-07-18T08:48:39;26.80;17.40
652;DHT22;310;48.490;9.200;2022-07-18T08:51:08;26.80;18.20
652;DHT22;310;48.490;9.200;2022-07-18T08:53:35;26.70;18.50
652;DHT22;310;48.490;9.200;2022-07-18T08:56:03;26.60;18.00
652;DHT22;310;48.490;9.200;2022-07-18T08:58:29;26.80;18.00
652;DHT22;310;48.490;9.200;2022-07-18T09:00:54;26.90;17.80
652;DHT22;310;48.490;9.200;2022-07-18T09:03:24;27.10;17.50
652;DHT22;310;48.490;9.200;2022-07-18T09:06:10;27.30;17.10
652;DHT22;310;48.490;9.200;2022-07-18T09:08:37;27.30;17.00
652;DHT22;310;48.490;9.200;2022-07-18T09:11:04;27.40;17.10
652;DHT22;310;48.490;9.200;2022-07-18T09:18:31;27.70;18.00
652;DHT22;310;48.490;9.200;2022-07-18T09:23:31;28.70;15.20
652;DHT22;310;48.490;9.200;2022-07-18T09:25:57;28.20;15.70
652;DHT22;310;48.490;9.200;2022-07-18T09:28:23;28.40;17.30
652;DHT22;310;48.490;9.200;2022-07-18T09:30:48;28.20;14.80
652;DHT22;310;48.490;9.200;2022-07-18T09:33:14;28.30;16.40
652;DHT22;310;48.490;9.200;2022-07-18T09:35:46;28.90;15.20
652;DHT22;310;48.490;9.200;2022-07-18T09:38:14;29.40;14.10
652;DHT22;310;48.490;9.200;2022-07-18T09:40:51;29.60;13.30
652;DHT22;310;48.490;9.200;2022-07-18T09:43:19;29.80;13.80
652;DHT22;310;48.490;9.200;2022-07-18T09:45:50;30.10;14.20
652;DHT22;310;48.490;9.200;2022-07-18T09:48:21;30.50;12.70
652;DHT22;310;48.490;9.200;2022-07-18T09:50:58;30.30;12.70
652;DHT22;310;48.490;9.200;2022-07-18T09:53:30;30.50;11.80
652;DHT22;310;48.490;9.200;2022-07-18T09:55:58;30.50;12.50
652;DHT22;310;48.490;9.200;2022-07-18T09:58:26;30.70;10.50
652;DHT22;310;48.490;9.200;2022-07-18T10:00:53;30.70;11.90
652;DHT22;310;48.490;9.200;2022-07-18T10:03:20;30.70;10.90
652;DHT22;310;48.490;9.200;2022-07-18T10:05:47;30.80;11.90
652;DHT22;310;48.490;9.200;2022-07-18T10:08:16;31.20;11.80
652;DHT22;310;48.490;9.200;2022-07-18T10:10:44;31.50;11.40
652;DHT22;310;48.490;9.200;2022-07-18T10:13:10;31.40;9.70
652;DHT22;310;48.490;9.200;2022-07-18T10:15:38;31.50;10.60
652;DHT22;310;48.490;9.200;2022-07-18T10:18:07;31.60;11.50
652;DHT22;310;48.490;9.200;2022-07-18T10:20:35;31.50;10.20
652;DHT22;310;48.490;9.200;2022-07-18T10:26:29;31.10;9.80
652;DHT22;310;48.490;9.200;2022-07-18T10:39:18;32.00;9.60
652;DHT22;310;48.490;9.200;2022-07-18T10:49:59;32.50;9.10
652;DHT22;310;48.490;9.200;2022-07-18T10:57:32;31.90;8.80
652;DHT22;310;48.490;9.200;2022-07-18T11:00:01;32.10;10.10
652;DHT22;310;48.490;9.200;2022-07-18T11:04:59;32.80;9.10
652;DHT22;310;48.490;9.200;2022-07-18T11:07:25;33.40;9.50
652;DHT22;310;48.490;9.200;2022-07-18T11:09:51;33.70;8.50
652;DHT22;310;48.490;9.200;2022-07-18T11:12:24;33.50;7.20
652;DHT22;310;48.490;9.200;2022-07-18T11:15:12;32.70;9.00
652;DHT22;310;48.490;9.200;2022-07-18T11:17:55;32.60;9.10
652;DHT22;310;48.490;9.200;2022-07-18T11:20:26;33.50;11.30
652;DHT22;310;48.490;9.200;2022-07-18T11:22:52;34.10;8.70
652;DHT22;310;48.490;9.200;2022-07-18T11:25:18;34.40;10.60
652;DHT22;310;48.490;9.200;2022-07-18T11:27:44;34.50;8.50
652;DHT22;310;48.490;9.200;2022-07-18T11:30:20;34.90;7.50
652;DHT22;310;48.490;9.200;2022-07-18T11:32:46;34.30;7.40
652;DHT22;310;48.490;9.200;2022-07-18T11:35:13;34.30;8.30
652;DHT22;310;48.490;9.200;2022-07-18T11:37:46;34.20;7.40
652;DHT22;310;48.490;9.200;2022-07-18T11:40:12;35.50;7.90
652;DHT22;310;48.490;9.200;2022-07-18T11:42:40;37.30;6.60
652;DHT22;310;48.490;9.200;2022-07-18T11:45:08;37.90;4.90
652;DHT22;310;48.490;9.200;2022-07-18T11:47:46;37.80;4.80
652;DHT22;310;48.490;9.200;2022-07-18T11:50:13;38.60;4.70
652;DHT22;310;48.490;9.200;2022-07-18T11:52:39;38.70;4.00
652;DHT22;310;48.490;9.200;2022-07-18T11:55:05;38.10;4.20
652;DHT22;310;48.490;9.200;2022-07-18T11:57:32;37.70;3.60
652;DHT22;310;48.490;9.200;2022-07-18T11:59:59;37.70;4.90
652;DHT22;310;48.490;9.200;2022-07-18T12:03:04;37.60;5.80
652;DHT22;310;48.490;9.200;2022-07-18T12:05:43;38.00;4.30
652;DHT22;310;48.490;9.200;2022-07-18T12:08:47;38.20;4.60
652;DHT22;310;48.490;9.200;2022-07-18T12:11:17;38.80;4.50
652;DHT22;310;48.490;9.200;2022-07-18T12:13:50;39.20;4.50
652;DHT22;310;48.490;9.200;2022-07-18T12:21:37;37.90;5.90
652;DHT22;310;48.490;9.200;2022-07-18T12:27:23;37.20;6.60
652;DHT22;310;48.490;9.200;2022-07-18T12:30:05;37.60;5.10
652;DHT22;310;48.490;9.200;2022-07-18T12:37:36;39.00;3.40
652;DHT22;310;48.490;9.200;2022-07-18T12:40:08;39.60;2.70
652;DHT22;310;48.490;9.200;2022-07-18T12:42:42;40.00;2.40
652;DHT22;310;48.490;9.200;2022-07-18T12:45:09;40.20;3.10
652;DHT22;310;48.490;9.200;2022-07-18T12:47:36;40.30;2.30
652;DHT22;310;48.490;9.200;2022-07-18T12:50:02;40.00;2.40
652;DHT22;310;48.490;9.200;2022-07-18T12:52:28;39.00;1.10
652;DHT22;310;48.490;9.200;2022-07-18T12:54:53;37.30;4.00
652;DHT22;310;48.490;9.200;2022-07-18T12:57:19;38.10;3.30
652;DHT22;310;48.490;9.200;2022-07-18T12:59:46;38.30;3.40
652;DHT22;310;48.490;9.200;2022-07-18T13:02:13;37.20;3.00
652;DHT22;310;48.490;9.200;2022-07-18T13:04:39;36.70;4.50
652;DHT22;310;48.490;9.200;2022-07-18T13:07:05;36.80;4.90
652;DHT22;310;48.490;9.200;2022-07-18T13:09:31;37.50;3.90
652;DHT22;310;48.490;9.200;2022-07-18T13:11:58;38.00;5.20
652;DHT22;310;48.490;9.200;2022-07-18T13:14:24;37.40;3.40
652;DHT22;310;48.490;9.200;2022-07-18T13:16:50;36.30;4.00
652;DHT22;310;48.490;9.200;2022-07-18T13:19:18;36.10;4.80
652;DHT22;310;48.490;9.200;2022-07-18T13:21:45;36.00;6.10
652;DHT22;310;48.490;9.200;2022-07-18T13:24:12;36.30;6.90
652;DHT22;310;48.490;9.200;2022-07-18T13:26:38;36.90;5.70
652;DHT22;310;48.490;9.200;2022-07-18T13:29:05;37.20;4.30
652;DHT22;310;48.490;9.200;2022-07-18T13:31:31;37.40;4.20
652;DHT22;310;48.490;9.200;2022-07-18T13:33:57;37.70;4.70
652;DHT22;310;48.490;9.200;2022-07-18T13:36:22;38.00;5.20
652;DHT22;310;48.490;9.200;2022-07-18T13:38:48;38.00;3.90
652;DHT22;310;48.490;9.200;2022-07-18T13:41:14;37.90;4.60
652;DHT22;310;48.490;9.200;2022-07-18T13:46:11;38.00;4.00
652;DHT22;310;48.490;9.200;2022-07-18T13:48:37;38.00;3.60
652;DHT22;310;48.490;9.200;2022-07-18T13:51:04;37.90;3.80
652;DHT22;310;48.490;9.200;2022-07-18T13:53:29;37.80;3.90
652;DHT22;310;48.490;9.200;2022-07-18T13:55:55;37.50;3.60
652;DHT22;310;48.490;9.200;2022-07-18T13:58:21;37.60;3.70
652;DHT22;310;48.490;9.200;2022-07-18T14:00:47;37.90;3.50
652;DHT22;310;48.490;9.200;2022-07-18T14:03:13;38.30;4.20
652;DHT22;310;48.490;9.200;2022-07-18T14:05:39;38.30;4.60
652;DHT22;310;48.490;9.200;2022-07-18T14:08:06;38.50;3.80
652;DHT22;310;48.490;9.200;2022-07-18T14:10:32;38.30;2.00
652;DHT22;310;48.490;9.200;2022-07-18T14:12:58;38.00;3.50
652;DHT22;310;48.490;9.200;2022-07-18T14:15:24;38.60;3.50
652;DHT22;310;48.490;9.200;2022-07-18T14:17:50;38.70;2.90
652;DHT22;310;48.490;9.200;2022-07-18T14:20:16;38.60;2.40
652;DHT22;310;48.490;9.200;2022-07-18T14:22:42;38.70;1.90
652;DHT22;310;48.490;9.200;2022-07-18T14:25:11;39.00;2.20
652;DHT22;310;48.490;9.200;2022-07-18T14:27:37;39.10;3.20
652;DHT22;310;48.490;9.200;2022-07-18T14:30:05;39.30;4.00
652;DHT22;310;48.490;9.200;2022-07-18T14:32:31;38.90;3.50
652;DHT22;310;48.490;9.200;2022-07-18T14:37:22;38.80;2.40
652;DHT22;310;48.490;9.200;2022-07-18T14:39:48;39.10;1.90
652;DHT22;310;48.490;9.200;2022-07-18T14:42:14;39.30;2.80
652;DHT22;310;48.490;9.200;2022-07-18T14:44:40;38.90;2.20
652;DHT22;310;48.490;9.200;2022-07-18T14:47:05;38.10;3.10
652;DHT22;310;48.490;9.200;2022-07-18T14:49:31;38.30;2.90
652;DHT22;310;48.490;9.200;2022-07-18T14:51:57;38.40;2.90
652;DHT22;310;48.490;9.200;2022-07-18T14:56:49;38.10;1.70
652;DHT22;310;48.490;9.200;2022-07-18T14:59:15;37.80;4.30
652;DHT22;310;48.490;9.200;2022-07-18T15:01:40;38.00;3.50
652;DHT22;310;48.490;9.200;2022-07-18T15:04:06;37.90;3.60
652;DHT22;310;48.490;9.200;2022-07-18T15:06:32;38.20;3.30
652;DHT22;310;48.490;9.200;2022-07-18T15:08:57;38.20;4.00
652;DHT22;310;48.490;9.200;2022-07-18T15:11:23;38.30;2.60
652;DHT22;310;48.490;9.200;2022-07-18T15:13:50;37.90;3.60
652;DHT22;310;48.490;9.200;2022-07-18T15:16:16;37.40;3.20
652;DHT22;310;48.490;9.200;2022-07-18T15:18:43;37.00;2.50
652;DHT22;310;48.490;9.200;2022-07-18T15:21:08;36.50;4.10
652;DHT22;310;48.490;9.200;2022-07-18T15:26:00;36.50;4.00
652;DHT22;310;48.490;9.200;2022-07-18T15:28:26;37.20;3.20
652;DHT22;310;48.490;9.200;2022-07-18T15:30:52;37.00;3.90
652;DHT22;310;48.490;9.200;2022-07-18T15:33:17;37.00;3.10
652;DHT22;310;48.490;9.200;2022-07-18T15:35:43;37.00;2.70
652;DHT22;310;48.490;9.200;2022-07-18T15:38:09;36.70;4.10
652;DHT22;310;48.490;9.200;2022-07-18T15:40:35;37.40;3.30
652;DHT22;310;48.490;9.200;2022-07-18T15:45:27;37.10;2.50
652;DHT22;310;48.490;9.200;2022-07-18T15:50:20;36.00;4.10
652;DHT22;310;48.490;9.200;2022-07-18T15:52:46;36.50;4.70
652;DHT22;310;48.490;9.200;2022-07-18T15:55:11;36.70;4.10
652;DHT22;310;48.490;9.200;2022-07-18T15:57:37;36.20;4.80
652;DHT22;310;48.490;9.200;2022-07-18T16:00:05;36.30;3.90
652;DHT22;310;48.490;9.200;2022-07-18T16:02:31;36.70;4.70
652;DHT22;310;48.490;9.200;2022-07-18T16:04:57;36.80;4.10
652;DHT22;310;48.490;9.200;2022-07-18T16:07:22;36.90;2.90
652;DHT22;310;48.490;9.200;2022-07-18T16:09:48;37.10;3.40
652;DHT22;310;48.490;9.200;2022-07-18T16:12:14;37.10;4.10
652;DHT22;310;48.490;9.200;2022-07-18T16:14:40;37.30;3.50
652;DHT22;310;48.490;9.200;2022-07-18T16:17:05;37.30;3.40
652;DHT22;310;48.490;9.200;2022-07-18T16:19:31;37.00;2.70
652;DHT22;310;48.490;9.200;2022-07-18T16:21:57;37.00;5.00
652;DHT22;310;48.490;9.200;2022-07-18T16:24:24;36.70;3.70
652;DHT22;310;48.490;9.200;2022-07-18T16:26:49;36.70;4.50
652;DHT22;310;48.490;9.200;2022-07-18T16:29:15;36.00;3.40
652;DHT22;310;48.490;9.200;2022-07-18T16:31:41;36.20;5.20
652;DHT22;310;48.490;9.200;2022-07-18T16:34:06;36.20;4.30
652;DHT22;310;48.490;9.200;2022-07-18T16:36:32;36.20;4.30
652;DHT22;310;48.490;9.200;2022-07-18T16:38:57;35.20;4.50
652;DHT22;310;48.490;9.200;2022-07-18T16:41:23;35.40;5.60
652;DHT22;310;48.490;9.200;2022-07-18T16:43:49;35.70;5.60
652;DHT22;310;48.490;9.200;2022-07-18T16:46:15;35.90;5.00
652;DHT22;310;48.490;9.200;2022-07-18T16:48:41;36.00;5.00
652;DHT22;310;48.490;9.200;2022-07-18T16:51:07;36.00;4.30
652;DHT22;310;48.490;9.200;2022-07-18T16:53:37;36.20;4.00
652;DHT22;310;48.490;9.200;2022-07-18T16:56:07;36.10;4.00
652;DHT22;310;48.490;9.200;2022-07-18T17:01:00;36.20;4.00
652;DHT22;310;48.490;9.200;2022-07-18T17:03:27;36.10;3.90
652;DHT22;310;48.490;9.200;2022-07-18T17:05:53;35.80;3.50
652;DHT22;310;48.490;9.200;2022-07-18T17:08:20;35.20;4.70
652;DHT22;310;48.490;9.200;2022-07-18T17:10:50;35.00;3.40
652;DHT22;310;48.490;9.200;2022-07-18T17:13:16;34.40;4.20
652;DHT22;310;48.490;9.200;2022-07-18T17:15:43;34.30;4.30
652;DHT22;310;48.490;9.200;2022-07-18T17:18:14;34.50;5.50
652;DHT22;310;48.490;9.200;2022-07-18T17:20:41;34.80;4.80
652;DHT22;310;48.490;9.200;2022-07-18T17:23:07;34.90;4.90
652;DHT22;310;48.490;9.200;2022-07-18T17:25:33;34.80;4.60
652;DHT22;310;48.490;9.200;2022-07-18T17:28:03;34.80;4.60
652;DHT22;310;48.490;9.200;2022-07-18T17:30:29;34.80;4.10
652;DHT22;310;48.490;9.200;2022-07-18T17:32:55;34.80;5.50
652;DHT22;310;48.490;9.200;2022-07-18T17:35:21;34.90;4.60
652;DHT22;310;48.490;9.200;2022-07-18T17:37:47;34.80;4.90
652;DHT22;310;48.490;9.200;2022-07-18T17:40:13;34.70;4.50
652;DHT22;310;48.490;9.200;2022-07-18T17:42:39;34.30;4.80
652;DHT22;310;48.490;9.200;2022-07-18T17:45:06;34.30;5.40
652;DHT22;310;48.490;9.200;2022-07-18T17:47:32;34.40;4.60
652;DHT22;310;48.490;9.200;2022-07-18T17:50:07;34.40;5.00